Terminal Aerodrome Forecast
Issued by NWS

Home | Current Version | Previous Version | Text Only | Print | Product List | Glossary On
Versions: 1 2 3 4 5 6 7 8 9 10 11 12 13 14 15 16 17 18
000
FTUS41 KPBZ 190924 AAA
TAFZZV
TAF AMD
KZZV 190924Z 1909/2006 30012G22KT P6SM OVC020
     FM191800 29015G25KT P6SM -SHSN BKN020
     FM192300 28012G22KT P6SM BKN035
     FM200300 27010KT P6SM SCT045=

USA.gov is the U.S. government's official web portal to all federal, state and local government web resources and services.